Time;durP1;ratioP1;P1;durP2;ratioP2;P2;SDS_P1;SDS_P2;PMS_P1;PMS_P2;Temp;Humidity;BMP_temperature;BMP_pressure;BME280_temperature;BME280_humidity;BME280_pressure;Samples;Min_cycle;Max_cycle;Signal;HPM_P1;HPM_P2
2020/12/30 00:02:17;;;;;;;16.90;13.17;;;1.30;99.90;;;2.11;89.74;96197.84;5173828;28;20222;-76
2020/12/30 00:04:49;;;;;;;21.10;13.40;;;1.30;99.90;;;2.10;90.56;96208.72;5188284;28;20294;-76
2020/12/30 00:07:23;;;;;;;14.47;10.60;;;1.30;99.90;;;2.12;90.96;96210.56;5184196;28;20205;-75
2020/12/30 00:09:55;;;;;;;9.60;7.37;;;1.30;99.90;;;2.16;90.31;96206.56;5173841;28;20207;-76
2020/12/30 00:12:28;;;;;;;9.07;6.83;;;1.30;99.90;;;2.17;89.64;96204.13;5168586;28;20208;-76
2020/12/30 00:15:00;;;;;;;13.20;8.60;;;1.30;99.90;;;2.10;89.85;96211.22;5168452;28;20715;-76
2020/12/30 00:17:32;;;;;;;14.20;9.60;;;1.30;99.90;;;2.13;90.59;96208.91;5169206;28;20213;-77
2020/12/30 00:20:04;;;;;;;12.30;7.93;;;1.30;99.90;;;2.16;90.53;96206.56;5183818;28;20194;-77
2020/12/30 00:22:37;;;;;;;5.47;5.00;;;1.30;99.90;;;2.15;89.73;96220.81;5168251;28;20633;-77
2020/12/30 00:25:10;;;;;;;3.70;3.40;;;1.30;99.90;;;2.01;89.64;96219.09;5169207;28;20214;-74
2020/12/30 00:27:45;;;;;;;4.20;4.00;;;1.10;99.90;;;1.93;89.57;96223.63;5186430;28;20200;-77
2020/12/30 00:30:18;;;;;;;5.13;4.73;;;1.00;99.90;;;1.88;89.68;96216.56;5184650;28;20198;-75
2020/12/30 00:32:50;;;;;;;5.00;4.60;;;1.10;99.90;;;1.97;90.21;96214.63;5169186;28;20310;-77
2020/12/30 00:35:22;;;;;;;6.03;5.57;;;1.10;99.90;;;1.85;89.71;96218.88;5172211;28;20225;-77
2020/12/30 00:37:55;;;;;;;5.77;5.27;;;1.10;99.90;;;1.81;90.28;96220.34;5189433;28;20200;-77
2020/12/30 00:40:27;;;;;;;6.50;5.90;;;1.10;99.90;;;1.78;90.38;96216.00;5188074;28;20595;-77
2020/12/30 00:42:59;;;;;;;5.90;5.40;;;1.00;99.90;;;1.78;90.56;96223.53;5170040;28;20296;-77
2020/12/30 00:45:31;;;;;;;5.57;5.07;;;1.00;99.90;;;1.82;90.19;96231.28;5168310;28;20214;-78
2020/12/30 00:48:04;;;;;;;5.40;4.90;;;1.00;99.90;;;1.99;90.29;96230.72;5171466;28;20635;-77
2020/12/30 00:50:36;;;;;;;4.43;4.07;;;1.10;99.90;;;1.91;89.80;96235.25;5172779;28;20190;-76
2020/12/30 00:53:09;;;;;;;4.30;3.90;;;1.10;99.90;;;1.90;90.72;96241.06;5188458;28;20199;-76
2020/12/30 00:55:41;;;;;;;3.83;3.63;;;1.10;99.90;;;1.84;90.93;96240.69;5187574;28;20671;-76
2020/12/30 00:58:13;;;;;;;4.13;3.83;;;1.00;99.90;;;1.75;90.96;96238.47;5188683;28;20190;-77
2020/12/30 01:00:45;;;;;;;4.10;3.80;;;1.00;99.90;;;1.73;90.53;96232.44;5187671;28;20223;-74
2020/12/30 01:03:17;;;;;;;4.60;4.20;;;1.00;99.90;;;1.72;91.35;96238.25;5188077;28;20257;-77
2020/12/30 01:05:49;;;;;;;4.83;4.43;;;1.00;99.90;;;1.74;91.04;96234.19;5184106;28;20304;-77
2020/12/30 01:08:22;;;;;;;4.23;3.93;;;1.00;99.90;;;1.74;90.90;96233.31;5187409;28;20230;-77
2020/12/30 01:10:55;;;;;;;3.83;3.53;;;1.10;99.90;;;1.75;90.79;96238.47;5188647;28;20269;-77
2020/12/30 01:13:27;;;;;;;4.63;4.23;;;1.00;99.90;;;1.80;90.76;96239.63;5192720;28;20577;-77
2020/12/30 01:15:59;;;;;;;4.47;4.17;;;1.00;99.90;;;1.82;90.66;96243.88;5193079;28;20198;-77
2020/12/30 01:18:31;;;;;;;3.67;3.47;;;1.00;99.90;;;1.76;89.96;96250.28;5192352;28;20197;-74
2020/12/30 01:21:03;;;;;;;3.80;3.50;;;1.00;99.90;;;1.68;90.53;96251.41;5181180;28;20225;-76
2020/12/30 01:23:36;;;;;;;3.97;3.77;;;0.90;99.90;;;1.69;90.53;96253.19;5193295;28;20337;-75
2020/12/30 01:26:09;;;;;;;4.00;3.70;;;0.90;99.90;;;1.57;91.04;96257.41;5192074;28;20559;-77
2020/12/30 01:28:42;;;;;;;4.07;3.87;;;0.80;99.90;;;1.63;91.29;96261.97;5192793;28;20197;-75
2020/12/30 01:31:15;;;;;;;3.97;3.67;;;0.80;99.90;;;1.63;91.61;96254.41;5191689;28;20308;-77
2020/12/30 01:33:47;;;;;;;4.67;4.37;;;0.90;99.90;;;1.69;90.68;96263.25;5177229;28;20556;-77
2020/12/30 01:36:19;;;;;;;4.10;3.80;;;0.90;99.90;;;1.76;91.35;96265.38;5184585;28;20205;-76
2020/12/30 01:38:52;;;;;;;4.13;3.80;;;1.00;99.90;;;1.82;90.97;96264.91;5193356;28;20288;-77
2020/12/30 01:41:25;;;;;;;4.20;4.00;;;1.00;99.90;;;1.87;91.57;96260.16;5181333;28;20691;-76
2020/12/30 01:44:02;;;;;;;4.17;3.87;;;1.10;99.90;;;1.84;91.11;96265.88;5172499;28;20777;-76
2020/12/30 01:46:40;;;;;;;3.50;3.20;;;1.10;99.90;;;1.87;90.91;96265.22;5192558;28;20693;-76
2020/12/30 01:49:16;;;;;;;4.17;3.70;;;1.00;99.90;;;1.94;90.73;96264.81;5178297;28;20202;-77
2020/12/30 01:51:51;;;;;;;4.90;4.60;;;1.10;99.90;;;1.99;90.88;96268.50;5182592;28;20239;-75
2020/12/30 01:54:28;;;;;;;4.57;4.27;;;1.10;99.90;;;2.07;90.57;96272.38;5174398;28;20630;-75
2020/12/30 01:57:03;;;;;;;3.80;3.53;;;1.10;99.90;;;2.04;90.91;96272.19;5184460;28;20210;-76
2020/12/30 01:59:36;;;;;;;3.43;3.23;;;1.10;99.90;;;2.09;89.83;96265.81;5174976;28;20281;-76
2020/12/30 02:02:08;;;;;;;3.47;3.23;;;1.10;99.90;;;2.06;90.83;96278.22;5188537;28;20230;-75
2020/12/30 02:04:47;;;;;;;3.77;3.47;;;1.10;99.90;;;2.03;90.52;96275.47;5190500;28;20226;-75
2020/12/30 02:07:22;;;;;;;4.13;3.90;;;1.20;99.90;;;2.06;90.40;96277.31;5191441;28;20567;-77
2020/12/30 02:09:58;;;;;;;3.63;3.43;;;1.10;99.90;;;1.96;90.72;96275.88;5191807;28;20186;-74
2020/12/30 02:12:32;;;;;;;3.90;3.60;;;1.10;99.90;;;1.98;90.83;96276.84;5190834;28;20206;-74
2020/12/30 02:15:04;;;;;;;3.77;3.57;;;1.20;99.90;;;1.98;90.95;96276.84;5190278;28;20195;-76
2020/12/30 02:17:36;;;;;;;4.07;3.77;;;1.20;99.90;;;2.00;91.39;96270.22;5171083;28;20199;-77
2020/12/30 02:20:08;;;;;;;3.90;3.63;;;1.20;99.90;;;2.02;90.60;96263.66;5191412;28;20284;-76
2020/12/30 02:22:42;;;;;;;4.20;3.90;;;1.20;99.90;;;2.12;90.09;96270.13;5191156;28;20313;-76
2020/12/30 02:25:15;;;;;;;4.07;3.87;;;1.20;99.90;;;2.06;90.07;96272.28;5180058;28;20695;-77
2020/12/30 02:27:47;;;;;;;4.60;4.20;;;1.20;99.90;;;2.07;90.77;96274.91;5170892;28;20204;-77
2020/12/30 02:30:19;;;;;;;4.73;4.43;;;1.20;99.90;;;1.99;90.40;96269.38;5170561;28;20637;-77
2020/12/30 02:32:52;;;;;;;5.37;4.83;;;1.10;99.90;;;1.95;90.31;96280.03;5171065;28;20632;-77
2020/12/30 02:35:25;;;;;;;5.00;4.60;;;1.10;99.90;;;1.84;90.70;96280.13;5173560;28;20203;-77
2020/12/30 02:38:00;;;;;;;4.80;4.30;;;1.00;99.90;;;1.84;90.63;96282.66;5190556;28;20198;-77
2020/12/30 02:40:33;;;;;;;5.60;5.10;;;1.00;99.90;;;1.84;90.64;96287.69;5190698;28;20332;-77
2020/12/30 02:43:06;;;;;;;5.27;4.87;;;1.00;99.90;;;1.78;91.75;96284.00;5190381;28;20226;-75
2020/12/30 02:45:38;;;;;;;5.43;4.70;;;1.00;99.90;;;1.78;91.02;96284.00;5176945;28;20211;-76
2020/12/30 02:48:10;;;;;;;4.70;4.40;;;1.00;99.90;;;1.78;91.80;96284.00;5174197;28;20293;-75
2020/12/30 02:50:42;;;;;;;5.77;5.20;;;1.00;99.90;;;1.76;91.07;96292.22;5183293;28;20286;-76
2020/12/30 02:53:14;;;;;;;5.13;4.73;;;1.00;99.90;;;1.75;91.27;96293.88;5170248;28;20210;-77
2020/12/30 02:55:48;;;;;;;5.17;4.77;;;1.00;99.90;;;1.74;90.97;96294.63;5170602;28;20205;-76
2020/12/30 02:58:20;;;;;;;5.27;4.97;;;1.00;99.90;;;1.72;91.33;96297.84;5169998;28;20202;-74
2020/12/30 03:00:52;;;;;;;5.03;4.73;;;0.90;99.90;;;1.67;90.97;96302.56;5183663;28;20650;-77
2020/12/30 03:03:25;;;;;;;5.30;4.90;;;0.90;99.90;;;1.71;90.65;96296.06;5189083;28;20214;-77
2020/12/30 03:05:57;;;;;;;5.73;5.27;;;0.80;99.90;;;1.68;90.69;96296.75;5172928;28;20213;-76
2020/12/30 03:08:29;;;;;;;4.83;4.43;;;0.80;99.90;;;1.57;91.00;96301.09;5170037;28;20268;-76
2020/12/30 03:11:03;;;;;;;5.30;4.90;;;0.80;99.90;;;1.62;90.82;96295.47;5175964;28;20225;-74
2020/12/30 03:13:35;;;;;;;4.37;4.03;;;0.80;99.90;;;1.56;91.58;96306.03;5170318;28;20206;-74
2020/12/30 03:16:07;;;;;;;5.23;4.83;;;0.70;99.90;;;1.51;91.16;96307.34;5169259;28;20567;-76
2020/12/30 03:18:39;;;;;;;5.20;4.80;;;0.70;99.90;;;1.46;90.61;96302.03;5169049;28;20569;-76
2020/12/30 03:21:11;;;;;;;4.93;4.53;;;0.70;99.90;;;1.46;90.55;96308.69;5182402;28;20225;-75
2020/12/30 03:23:44;;;;;;;5.00;4.60;;;0.70;99.90;;;1.42;91.00;96310.13;5196863;28;20223;-76
2020/12/30 03:26:17;;;;;;;5.03;4.70;;;0.60;99.90;;;1.39;91.20;96306.56;5168273;28;20617;-74
2020/12/30 03:28:49;;;;;;;4.87;4.50;;;0.60;99.90;;;1.37;91.02;96303.03;5168714;28;20194;-77
2020/12/30 03:31:21;;;;;;;5.60;3.97;;;0.50;99.90;;;1.34;90.77;96309.66;5169479;28;20232;-77
2020/12/30 03:33:53;;;;;;;4.20;3.80;;;0.50;99.90;;;1.26;90.98;96310.78;5183455;28;20217;-77
2020/12/30 03:36:25;;;;;;;3.73;3.43;;;0.50;99.90;;;1.12;90.90;96301.44;5171478;28;20277;-77
2020/12/30 03:38:57;;;;;;;4.23;3.93;;;0.40;99.90;;;1.18;91.63;96313.53;5179522;28;20205;-76
2020/12/30 03:41:30;;;;;;;4.37;3.97;;;0.50;99.90;;;1.12;91.53;96319.03;5188196;28;20242;-76
2020/12/30 03:44:02;;;;;;;4.70;4.40;;;0.40;99.90;;;1.21;90.90;96317.13;5188101;28;20237;-76
2020/12/30 03:46:34;;;;;;;4.67;4.27;;;0.40;99.90;;;1.16;91.25;96323.50;5187860;28;20215;-77
2020/12/30 03:49:06;;;;;;;4.77;4.37;;;0.40;99.90;;;1.19;91.25;96315.28;5185043;28;20687;-74
2020/12/30 03:51:39;;;;;;;4.90;4.50;;;0.40;99.90;;;1.10;91.36;96323.09;5173777;28;20313;-77
2020/12/30 03:54:11;;;;;;;4.50;4.20;;;0.40;99.90;;;1.09;91.83;96321.34;5182250;28;20563;-76
2020/12/30 03:56:44;;;;;;;4.77;4.37;;;0.40;99.90;;;1.15;91.59;96316.72;5189217;28;20198;-77
2020/12/30 03:59:16;;;;;;;4.50;4.20;;;0.40;99.90;;;1.18;91.57;96321.09;5186984;28;20213;-75
2020/12/30 04:01:49;;;;;;;4.90;4.60;;;0.40;99.90;;;1.08;90.86;96314.56;5187387;28;20315;-75
2020/12/30 04:04:21;;;;;;;4.83;4.53;;;0.30;99.90;;;1.04;91.00;96332.72;5167359;28;20718;-76
2020/12/30 04:06:53;;;;;;;5.30;4.90;;;0.30;99.90;;;0.97;91.65;96325.53;5168631;28;20286;-76
2020/12/30 04:09:25;;;;;;;5.03;4.53;;;0.20;99.90;;;0.98;91.63;96324.78;5167407;28;20210;-75
2020/12/30 04:11:58;;;;;;;5.07;4.67;;;0.20;99.90;;;0.96;91.63;96326.31;5171625;28;20221;-76
2020/12/30 04:14:30;;;;;;;4.60;4.30;;;0.20;99.90;;;0.95;91.24;96322.91;5187409;28;20213;-76
2020/12/30 04:17:02;;;;;;;3.90;3.70;;;0.20;99.90;;;0.96;91.22;96326.31;5168978;28;20273;-77
2020/12/30 04:19:34;;;;;;;4.60;4.30;;;0.20;99.90;;;0.94;91.53;96318.63;5171306;28;20287;-77
2020/12/30 04:22:06;;;;;;;4.77;4.47;;;0.10;99.90;;;0.89;91.66;96318.34;5186396;28;20306;-76
2020/12/30 04:24:39;;;;;;;4.40;4.10;;;0.10;99.90;;;0.93;90.87;96323.56;5186012;28;20197;-77
2020/12/30 04:27:12;;;;;;;4.17;3.87;;;0.10;99.90;;;0.93;90.85;96329.47;5188162;28;20200;-76
2020/12/30 04:29:44;;;;;;;4.23;3.93;;;0.10;99.90;;;0.88;90.72;96318.22;5171000;28;20478;-77
2020/12/30 04:32:16;;;;;;;3.83;3.53;;;0.10;99.90;;;0.87;90.96;96327.41;5167491;28;20221;-76
2020/12/30 04:34:48;;;;;;;4.10;3.70;;;0.10;99.90;;;0.84;90.82;96328.84;5206207;23;20257;-75
2020/12/30 04:37:20;;;;;;;4.60;4.30;;;0.00;99.90;;;0.82;91.03;96333.75;5236843;28;20196;-75
2020/12/30 04:39:52;;;;;;;4.63;4.23;;;0.00;99.90;;;0.82;90.85;96333.75;5233979;28;20646;-75
2020/12/30 04:42:34;;;;;;;4.80;4.30;;;0.00;99.90;;;0.71;90.77;96332.13;5240062;28;20229;-75
2020/12/30 04:45:10;;;;;;;3.80;3.50;;;0.00;99.90;;;0.68;90.97;96336.97;5245548;28;20202;-75
2020/12/30 04:47:45;;;;;;;4.87;4.50;;;0.00;99.90;;;0.67;91.41;96335.22;5236104;28;20202;-75
2020/12/30 04:50:17;;;;;;;4.20;3.90;;;-0.10;99.90;;;0.63;91.53;96336.66;5251485;28;20193;-75
2020/12/30 04:52:50;;;;;;;3.70;3.50;;;-0.10;99.90;;;0.62;91.25;96339.91;5250818;28;20220;-74
2020/12/30 04:55:24;;;;;;;4.00;3.80;;;-0.10;99.90;;;0.62;91.25;96342.44;5252615;28;20203;-74
2020/12/30 04:58:05;;;;;;;4.57;4.27;;;-0.10;99.90;;;0.58;91.88;96342.13;5251546;28;20219;-75
2020/12/30 05:00:39;;;;;;;4.50;4.20;;;-0.20;99.90;;;0.57;91.28;96345.38;5251623;28;20664;-75
2020/12/30 05:03:12;;;;;;;4.40;4.10;;;-0.20;99.90;;;0.55;91.52;96351.97;5250114;28;20712;-76
2020/12/30 05:05:45;;;;;;;3.83;3.60;;;-0.20;99.90;;;0.53;91.69;96356.00;5251453;28;20207;-74
2020/12/30 05:08:17;;;;;;;5.03;4.67;;;-0.20;99.90;;;0.54;91.21;96362.78;5235259;28;20731;-76
2020/12/30 05:10:52;;;;;;;4.27;3.97;;;-0.20;99.90;;;0.56;90.85;96361.25;5250939;28;20299;-77
2020/12/30 05:13:26;;;;;;;4.90;4.50;;;-0.20;99.90;;;0.59;90.30;96367.34;5251754;28;20258;-75
2020/12/30 05:15:58;;;;;;;4.27;4.00;;;-0.30;99.90;;;0.45;90.36;96373.91;5246542;28;20192;-76
2020/12/30 05:18:30;;;;;;;4.47;4.17;;;-0.30;99.90;;;0.39;90.50;96376.00;5249778;28;20189;-76
2020/12/30 05:21:06;;;;;;;4.40;4.10;;;-0.40;99.90;;;0.34;90.68;96379.81;5245982;28;20246;-75
2020/12/30 05:23:38;;;;;;;4.53;4.17;;;-0.40;99.90;;;0.32;91.23;96380.50;5246831;28;20347;-76
2020/12/30 05:26:10;;;;;;;4.63;4.33;;;-0.40;99.90;;;0.36;90.34;96388.34;5233308;28;20281;-77
2020/12/30 05:28:43;;;;;;;4.33;4.03;;;-0.40;99.90;;;0.34;90.79;96387.34;5233979;28;20205;-75
2020/12/30 05:31:15;;;;;;;3.93;3.73;;;-0.40;99.90;;;0.31;91.02;96394.66;5236492;28;20220;-76
2020/12/30 05:33:48;;;;;;;4.10;3.83;;;-0.40;99.90;;;0.29;91.05;96405.41;5251609;28;20208;-76
2020/12/30 05:36:20;;;;;;;4.23;3.93;;;-0.40;99.90;;;0.28;91.20;96406.16;5240031;28;20652;-75
2020/12/30 05:38:52;;;;;;;4.33;3.93;;;-0.40;99.90;;;0.34;91.37;96404.94;5231478;28;20204;-76
2020/12/30 05:41:24;;;;;;;4.60;4.30;;;-0.40;99.90;;;0.34;91.28;96409.97;5244617;28;20711;-76
2020/12/30 05:43:57;;;;;;;4.00;3.80;;;-0.40;99.90;;;0.36;91.28;96413.47;5251254;28;20227;-75
2020/12/30 05:46:30;;;;;;;3.73;3.53;;;-0.40;99.90;;;0.32;91.19;96424.06;5239166;28;20289;-77
2020/12/30 05:49:02;;;;;;;4.30;4.10;;;-0.50;99.90;;;0.31;90.85;96422.31;5230685;28;20202;-76
2020/12/30 05:51:34;;;;;;;3.80;3.60;;;-0.50;99.90;;;0.33;90.65;96420.78;5232037;28;20527;-75
2020/12/30 05:54:11;;;;;;;4.47;4.17;;;-0.50;99.90;;;0.29;90.30;96423.00;5230633;28;20231;-76
2020/12/30 05:56:43;;;;;;;3.60;3.40;;;-0.50;99.90;;;0.32;90.58;96425.72;5230467;28;20292;-77
2020/12/30 05:59:21;;;;;;;4.50;4.20;;;-0.50;99.90;;;0.32;90.49;96426.59;5243519;28;20232;-76
2020/12/30 06:01:57;;;;;;;3.90;3.70;;;-0.50;99.90;;;0.39;90.05;96427.91;5238944;28;20591;-76
2020/12/30 06:04:29;;;;;;;4.20;3.90;;;-0.50;99.90;;;0.35;90.27;96436.84;5228036;28;20217;-76
2020/12/30 06:07:04;;;;;;;4.07;3.87;;;-0.50;99.90;;;0.29;90.44;96441.44;5232403;28;20300;-74
2020/12/30 06:09:39;;;;;;;6.63;6.03;;;-0.50;99.90;;;0.27;90.87;96445.47;5226727;28;20200;-75
2020/12/30 06:12:13;;;;;;;5.33;4.93;;;-0.50;99.90;;;0.28;90.24;96457.25;5226842;28;20583;-75
2020/12/30 06:14:50;;;;;;;5.17;4.80;;;-0.50;99.90;;;0.26;90.92;96458.81;5226794;28;20200;-74
2020/12/30 06:17:27;;;;;;;4.73;4.33;;;-0.50;99.90;;;0.21;90.59;96455.09;5227123;28;20203;-75
2020/12/30 06:19:59;;;;;;;5.57;5.17;;;-0.50;99.90;;;0.23;90.87;96461.09;5244458;28;20236;-73
2020/12/30 06:22:31;;;;;;;5.40;5.00;;;-0.40;99.90;;;0.22;90.33;96459.34;5226816;28;20224;-74
2020/12/30 06:25:04;;;;;;;4.07;3.77;;;-0.50;99.90;;;0.17;90.84;96463.13;5229370;28;20211;-77
2020/12/30 06:27:41;;;;;;;6.13;5.63;;;-0.50;99.90;;;0.25;91.06;96462.06;5230721;28;20315;-74
2020/12/30 06:30:15;;;;;;;5.00;4.50;;;-0.50;99.90;;;0.23;90.72;96468.63;5226304;28;20207;-74
2020/12/30 06:32:47;;;;;;;4.90;4.47;;;-0.50;99.90;;;0.26;90.75;96466.34;5226750;28;20704;-75
2020/12/30 06:35:27;;;;;;;5.00;4.70;;;-0.50;99.90;;;0.17;90.71;96468.16;5241486;28;20205;-75
2020/12/30 06:38:17;;;;;;;5.30;4.90;;;-0.50;99.90;;;0.20;90.77;96480.94;5228773;28;20205;-76
2020/12/30 06:40:55;;;;;;;4.57;4.27;;;-0.50;99.90;;;0.25;90.91;96479.66;5226180;28;20307;-74
2020/12/30 06:43:42;;;;;;;4.83;4.33;;;-0.50;99.90;;;0.24;90.58;96482.94;5227058;28;20219;-77
2020/12/30 06:46:19;;;;;;;4.67;4.27;;;-0.40;99.90;;;0.22;90.92;96484.44;5247555;28;20683;-76
2020/12/30 06:48:56;;;;;;;4.43;4.13;;;-0.40;99.90;;;0.27;90.84;96488.19;5241539;28;20200;-74
2020/12/30 06:51:36;;;;;;;5.10;4.70;;;-0.40;99.90;;;0.27;90.83;96483.16;5230407;28;20316;-76
2020/12/30 06:54:08;;;;;;;5.00;4.63;;;-0.40;99.90;;;0.28;91.02;96487.41;5225731;28;20366;-74
2020/12/30 06:56:42;;;;;;;5.00;4.60;;;-0.40;99.90;;;0.21;91.33;96503.69;5227044;28;20716;-74
2020/12/30 06:59:17;;;;;;;6.33;5.73;;;-0.50;99.90;;;0.18;91.46;96497.56;5227793;28;20561;-77
2020/12/30 07:01:58;;;;;;;6.07;5.57;;;-0.50;99.90;;;0.21;91.29;96505.31;5235644;28;20216;-74
2020/12/30 07:04:33;;;;;;;5.63;5.13;;;-0.50;99.90;;;0.20;91.11;96503.56;5231212;28;20218;-76
2020/12/30 07:07:20;;;;;;;5.60;5.20;;;-0.50;99.90;;;0.30;90.88;96513.53;5228229;28;20663;-77
2020/12/30 07:09:52;;;;;;;5.13;4.73;;;-0.40;99.90;;;0.25;90.91;96519.84;5226572;28;20237;-75
2020/12/30 07:12:38;;;;;;;6.27;5.77;;;-0.50;99.90;;;0.24;90.57;96520.63;5231224;28;20222;-75
2020/12/30 07:15:10;;;;;;;4.93;4.53;;;-0.50;99.90;;;0.30;90.93;96522.72;5242806;28;20283;-75
2020/12/30 07:17:43;;;;;;;5.97;5.47;;;-0.40;99.90;;;0.33;90.63;96518.78;5246644;28;20211;-75
2020/12/30 07:20:21;;;;;;;5.70;5.30;;;-0.40;99.90;;;0.23;90.28;96528.94;5238512;28;20200;-77
2020/12/30 07:22:53;;;;;;;5.40;4.87;;;-0.40;99.90;;;0.25;90.81;96532.41;5234087;28;20230;-76
2020/12/30 07:25:27;;;;;;;6.03;5.57;;;-0.40;99.90;;;0.23;90.80;96536.47;5241098;28;20207;-75
2020/12/30 07:28:01;;;;;;;5.00;4.70;;;-0.40;99.90;;;0.21;90.90;96531.31;5226631;28;20208;-74
2020/12/30 07:30:33;;;;;;;5.67;5.17;;;-0.40;99.90;;;0.22;90.61;96540.59;5231258;28;20201;-73
2020/12/30 07:33:07;;;;;;;5.00;4.63;;;-0.40;99.90;;;0.18;91.14;96547.81;5226007;28;20201;-75
2020/12/30 07:35:39;;;;;;;5.53;5.13;;;-0.50;99.90;;;0.24;90.86;96553.28;5226708;28;20327;-73
2020/12/30 07:38:14;;;;;;;5.70;5.30;;;-0.40;99.90;;;0.23;91.18;96549.03;5225706;28;20205;-76
2020/12/30 07:41:03;;;;;;;5.17;4.87;;;-0.40;99.90;;;0.28;91.22;96562.78;5240623;28;20202;-75
2020/12/30 07:43:49;;;;;;;5.63;5.20;;;-0.40;99.90;;;0.27;90.98;96561.03;5246465;28;20596;-74
2020/12/30 07:46:22;;;;;;;5.57;5.27;;;-0.40;99.90;;;0.32;90.98;96561.41;5246524;28;20198;-76
2020/12/30 07:49:08;;;;;;;7.50;6.87;;;-0.40;99.90;;;0.29;91.34;96566.19;5245046;28;20562;-76
2020/12/30 07:51:54;;;;;;;7.17;6.57;;;-0.40;99.90;;;0.32;90.72;96569.81;5244910;28;20220;-73
2020/12/30 07:54:27;;;;;;;8.17;7.40;;;-0.40;99.90;;;0.34;90.43;96575.81;5244769;28;20199;-78
2020/12/30 07:57:04;;;;;;;7.87;7.17;;;-0.40;99.90;;;0.37;90.84;96578.56;5232537;28;20287;-77
2020/12/30 07:59:39;;;;;;;7.73;7.03;;;-0.30;99.90;;;0.40;90.63;96576.28;5231660;28;20292;-77
2020/12/30 08:02:12;;;;;;;7.37;6.70;;;-0.40;99.90;;;0.45;90.43;96579.13;5235723;28;20222;-77
2020/12/30 08:04:47;;;;;;;7.50;6.77;;;-0.30;99.90;;;0.56;90.92;96579.94;5242167;28;20247;-77
2020/12/30 08:07:19;;;;;;;6.60;6.10;;;-0.10;99.90;;;0.64;90.29;96586.41;5230920;28;20195;-77
2020/12/30 08:09:51;;;;;;;6.50;6.00;;;0.00;99.90;;;0.67;90.88;96587.50;5243175;28;20201;-77
2020/12/30 08:12:24;;;;;;;6.40;5.93;;;0.00;99.90;;;0.74;90.95;96585.44;5244683;28;20216;-77
2020/12/30 08:14:56;;;;;;;6.23;5.73;;;0.10;99.90;;;0.79;90.96;96585.00;5234721;28;20668;-78
2020/12/30 08:17:28;;;;;;;6.17;5.57;;;0.10;99.90;;;0.87;90.25;96591.47;5224130;28;20287;-76
2020/12/30 08:20:06;;;;;;;6.10;5.60;;;0.10;99.90;;;0.86;90.30;96583.84;5233267;28;20201;-77
2020/12/30 08:22:39;;;;;;;5.67;5.27;;;0.10;99.90;;;0.94;89.32;96581.84;5242689;28;20213;-77
2020/12/30 08:25:11;;;;;;;9.83;9.00;;;0.10;99.90;;;1.09;88.65;96588.88;5244107;28;20305;-77
2020/12/30 08:27:44;;;;;;;8.63;7.83;;;0.20;99.90;;;1.03;88.02;96585.03;5244202;28;20283;-79
2020/12/30 08:30:16;;;;;;;9.00;8.20;;;0.20;99.90;;;0.93;88.64;96590.19;5243137;28;20216;-76
2020/12/30 08:32:57;;;;;;;8.50;7.80;;;0.20;99.90;;;0.88;88.66;96599.88;5243692;28;20271;-77
2020/12/30 08:35:33;;;;;;;7.10;6.57;;;0.10;99.90;;;0.87;88.94;96594.00;5243478;28;20243;-77
2020/12/30 08:38:18;;;;;;;7.47;6.77;;;0.20;99.90;;;0.92;89.81;96598.47;5229336;28;20218;-77
2020/12/30 08:40:53;;;;;;;7.70;7.13;;;0.20;99.90;;;1.08;89.59;96598.81;5247920;28;20216;-76
2020/12/30 08:43:40;;;;;;;6.80;6.20;;;0.40;99.90;;;1.22;89.66;96595.66;5224924;28;20313;-76
2020/12/30 08:46:20;;;;;;;6.57;6.07;;;0.50;99.90;;;1.47;89.63;96589.88;5231972;28;20710;-75
2020/12/30 08:48:53;;;;;;;6.63;6.03;;;0.80;99.90;;;1.89;88.84;96602.09;5228251;28;20199;-75
2020/12/30 08:51:28;;;;;;;7.17;6.57;;;1.10;99.90;;;2.00;87.46;96597.75;5229433;28;20715;-75
2020/12/30 08:54:01;;;;;;;9.73;8.83;;;1.30;99.90;;;2.35;85.72;96609.41;5221991;28;20298;-76
2020/12/30 08:56:33;;;;;;;12.00;10.47;;;1.50;99.90;;;2.15;84.05;96616.47;5235762;28;20678;-75
2020/12/30 08:59:05;;;;;;;7.70;7.00;;;1.50;99.90;;;2.21;85.33;96616.91;5240181;28;20200;-76
2020/12/30 09:01:37;;;;;;;7.43;6.73;;;1.50;99.90;;;2.40;85.07;96616.47;5222061;28;20239;-76
2020/12/30 09:04:11;;;;;;;8.67;7.00;;;1.70;99.90;;;2.57;85.78;96620.16;5229725;28;20698;-76
2020/12/30 09:06:50;;;;;;;8.50;7.70;;;1.80;99.90;;;2.68;85.15;96610.78;5231863;28;20208;-76
2020/12/30 09:09:22;;;;;;;8.93;8.13;;;2.00;99.90;;;2.73;84.06;96611.97;5241154;28;20196;-75
2020/12/30 09:11:54;;;;;;;9.60;8.47;;;2.10;99.90;;;2.94;84.21;96607.44;5240127;28;20244;-75
2020/12/30 09:14:38;;;;;;;8.87;8.07;;;2.20;99.90;;;3.07;83.47;96606.63;5221675;28;20206;-75
2020/12/30 09:17:14;;;;;;;9.00;8.20;;;2.40;99.90;;;3.28;81.14;96604.59;5223541;28;20192;-75
2020/12/30 09:19:46;;;;;;;6.90;6.40;;;2.60;99.90;;;3.33;82.10;96613.34;5240731;28;20202;-75
2020/12/30 09:22:19;;;;;;;6.83;6.23;;;2.60;99.90;;;3.44;81.74;96619.09;5237418;28;20807;-76
2020/12/30 09:24:51;;;;;;;6.67;6.17;;;2.60;99.90;;;3.65;79.46;96615.41;5224335;28;20608;-75
2020/12/30 09:27:24;;;;;;;7.10;6.40;;;2.70;99.90;;;3.46;79.32;96615.88;5233640;28;20201;-76
2020/12/30 09:30:08;;;;;;;6.70;6.10;;;2.60;99.90;;;3.61;79.37;96621.91;5220699;28;20208;-75
2020/12/30 09:32:44;;;;;;;7.10;6.50;;;2.70;99.90;;;3.41;79.56;96617.25;5223352;28;20213;-75
2020/12/30 09:35:17;;;;;;;7.83;7.13;;;2.50;99.90;;;3.43;79.54;96617.34;5237598;28;20715;-76
2020/12/30 09:37:52;;;;;;;8.17;7.57;;;2.60;99.90;;;3.37;80.38;96611.09;5241916;28;20671;-75
2020/12/30 09:40:26;;;;;;;7.73;7.07;;;2.40;99.90;;;3.28;80.39;96612.19;5233989;28;20629;-75
2020/12/30 09:43:10;;;;;;;8.33;7.53;;;2.30;99.90;;;3.52;80.23;96613.75;5229006;28;20232;-76
2020/12/30 09:45:43;;;;;;;9.20;7.37;;;2.50;99.90;;;3.49;80.57;96618.63;5234378;28;20287;-75
2020/12/30 09:48:17;;;;;;;8.17;7.40;;;2.60;99.90;;;3.69;79.82;96624.03;5231452;28;20580;-75
2020/12/30 09:50:53;;;;;;;7.43;6.83;;;2.60;99.90;;;3.75;79.12;96622.78;5236050;28;20198;-76
2020/12/30 09:53:26;;;;;;;6.40;5.90;;;2.60;99.90;;;3.69;79.41;96624.03;5224644;28;20233;-76
2020/12/30 09:55:58;;;;;;;6.73;6.23;;;2.60;99.90;;;3.64;80.11;96625.41;5225033;28;20358;-75
2020/12/30 09:58:30;;;;;;;6.23;5.73;;;2.70;99.90;;;3.69;81.09;96629.09;5232659;28;20391;-75
2020/12/30 10:01:02;;;;;;;7.30;6.53;;;2.80;99.90;;;3.77;81.12;96620.34;5244045;28;20507;-75
2020/12/30 10:03:34;;;;;;;7.93;7.33;;;2.80;99.90;;;3.76;81.01;96629.59;5242048;28;20790;-75
2020/12/30 10:06:11;;;;;;;8.37;7.60;;;2.90;99.90;;;3.70;81.76;96625.81;5235511;28;20607;-76
2020/12/30 10:08:44;;;;;;;8.00;7.30;;;2.90;99.90;;;3.89;81.61;96622.75;5238814;28;20196;-76
2020/12/30 10:11:19;;;;;;;7.40;6.80;;;3.00;99.90;;;4.06;81.08;96625.56;5227696;28;20245;-76
2020/12/30 10:13:51;;;;;;;7.30;6.70;;;3.00;99.90;;;4.11;80.95;96619.91;5223747;28;20191;-75
2020/12/30 10:16:23;;;;;;;8.13;7.33;;;3.10;99.90;;;4.24;80.42;96622.41;5224340;28;20210;-76
2020/12/30 10:18:55;;;;;;;7.63;7.03;;;3.10;99.90;;;4.22;80.44;96623.97;5230693;28;20246;-75
2020/12/30 10:21:31;;;;;;;7.23;6.63;;;3.20;99.90;;;4.24;80.40;96630.88;5223976;28;20223;-75
2020/12/30 10:24:04;;;;;;;8.53;7.83;;;3.20;99.90;;;4.27;80.33;96632.72;5228580;28;20212;-76
2020/12/30 10:26:36;;;;;;;9.10;8.30;;;3.20;99.90;;;4.27;80.43;96632.72;5243803;28;20202;-75
2020/12/30 10:29:08;;;;;;;8.97;8.17;;;3.30;99.90;;;4.31;80.44;96629.59;5243756;28;20726;-75
2020/12/30 10:31:40;;;;;;;8.97;8.20;;;3.30;99.90;;;4.34;80.57;96626.38;5244512;28;20231;-75
2020/12/30 10:34:12;;;;;;;9.07;8.33;;;3.30;99.90;;;4.32;80.57;96633.88;5245982;28;20664;-75
2020/12/30 10:36:44;;;;;;;9.63;8.80;;;3.30;99.90;;;4.34;80.81;96631.44;5230251;28;20205;-76
2020/12/30 10:39:17;;;;;;;10.40;9.50;;;3.40;99.90;;;4.35;80.30;96636.59;5223461;28;20200;-76
2020/12/30 10:41:54;;;;;;;10.20;9.33;;;3.40;99.90;;;4.40;80.78;96645.31;5223587;28;20231;-75
2020/12/30 10:44:26;;;;;;;21.60;19.47;;;3.40;99.90;;;4.43;80.94;96640.44;5232808;28;20216;-75
2020/12/30 10:46:58;;;;;;;14.57;13.30;;;3.50;99.90;;;4.53;81.10;96646.06;5243288;28;20195;-75
2020/12/30 10:49:32;;;;;;;12.17;11.07;;;3.60;99.90;;;4.56;81.32;96641.19;5242536;28;20201;-75
2020/12/30 10:52:04;;;;;;;11.43;10.33;;;3.70;99.90;;;4.64;81.72;96637.47;5226556;28;20232;-75
2020/12/30 10:54:42;;;;;;;9.43;8.57;;;3.80;99.90;;;4.72;82.04;96643.84;5239415;28;20346;-75
2020/12/30 10:57:14;;;;;;;9.20;8.30;;;3.90;99.90;;;4.84;81.62;96631.94;5244493;28;20200;-75
2020/12/30 10:59:46;;;;;;;7.67;7.00;;;4.00;99.90;;;4.88;81.16;96636.38;5238470;28;20209;-75